Time;durP1;ratioP1;P1;durP2;ratioP2;P2;SDS_P1;SDS_P2;PMS_P1;PMS_P2;Temp;Humidity;BMP_temperature;BMP_pressure;BME280_temperature;BME280_humidity;BME280_pressure;Samples;Min_cycle;Max_cycle;Signal;HPM_P1;HPM_P2
2022/03/17 00:00:18;;;;;;;21.38;15.77;;;8.10;96.30;;;;;;5053003;28;20548;-57
2022/03/17 00:02:45;;;;;;;20.65;15.98;;;8.10;96.40;;;;;;5053387;28;20202;-58
2022/03/17 00:05:13;;;;;;;19.15;16.10;;;8.10;96.40;;;;;;5053252;28;20217;-58
2022/03/17 00:07:42;;;;;;;20.98;16.02;;;8.10;96.50;;;;;;5053192;28;20708;-56
2022/03/17 00:10:13;;;;;;;16.25;14.15;;;8.10;96.60;;;;;;5053814;28;20599;-56
2022/03/17 00:12:41;;;;;;;18.50;14.60;;;8.10;96.60;;;;;;5053174;28;20296;-56
2022/03/17 00:15:10;;;;;;;19.17;15.50;;;8.10;96.60;;;;;;5053359;28;20237;-56
2022/03/17 00:17:37;;;;;;;22.20;15.02;;;8.10;96.60;;;;;;5053158;28;20201;-57
2022/03/17 00:20:07;;;;;;;17.08;14.77;;;8.10;96.60;;;;;;5053254;28;20206;-57
2022/03/17 00:22:34;;;;;;;17.67;14.60;;;8.10;96.60;;;;;;5052744;28;20259;-57
2022/03/17 00:25:01;;;;;;;17.98;15.57;;;8.10;96.60;;;;;;5054310;28;20748;-58
2022/03/17 00:27:28;;;;;;;16.50;14.68;;;8.10;96.60;;;;;;5056748;28;20216;-58
2022/03/17 00:29:56;;;;;;;18.77;15.27;;;8.10;96.60;;;;;;5057032;28;20201;-58
2022/03/17 00:32:26;;;;;;;19.92;15.23;;;8.10;96.60;;;;;;5056844;28;20202;-58
2022/03/17 00:37:37;;;;;;;20.10;16.15;;;8.10;96.60;;;;;;5056985;28;20181;-58
2022/03/17 00:40:06;;;;;;;23.98;17.42;;;8.10;96.70;;;;;;5056557;28;20591;-57
2022/03/17 00:42:33;;;;;;;19.80;15.63;;;8.10;96.70;;;;;;5056893;28;20201;-57
2022/03/17 00:45:00;;;;;;;18.38;15.50;;;8.10;96.70;;;;;;5056673;28;20705;-58
2022/03/17 00:47:28;;;;;;;18.63;15.68;;;8.10;96.80;;;;;;5057990;28;20205;-58
2022/03/17 00:49:55;;;;;;;23.10;16.67;;;8.10;96.80;;;;;;5057050;28;20575;-58
2022/03/17 00:52:22;;;;;;;21.60;16.10;;;8.00;96.80;;;;;;5056857;28;20201;-58
2022/03/17 00:54:49;;;;;;;21.50;15.82;;;8.00;96.80;;;;;;5056597;28;20252;-58
2022/03/17 00:57:16;;;;;;;20.63;16.85;;;8.00;96.90;;;;;;5056672;28;20208;-58
2022/03/17 00:59:43;;;;;;;21.15;16.40;;;8.00;96.90;;;;;;5056370;28;20673;-57
2022/03/17 01:02:11;;;;;;;21.15;15.48;;;8.00;97.00;;;;;;5056362;28;20201;-58
2022/03/17 01:04:39;;;;;;;20.20;16.73;;;8.00;97.00;;;;;;5056474;28;20229;-58
2022/03/17 01:07:06;;;;;;;23.27;17.60;;;8.00;96.90;;;;;;5056050;28;20208;-57
2022/03/17 01:09:33;;;;;;;21.98;17.60;;;8.00;97.00;;;;;;5056151;28;20612;-58
2022/03/17 01:12:01;;;;;;;21.30;15.93;;;8.00;97.00;;;;;;5056353;28;20572;-57
2022/03/17 01:14:28;;;;;;;22.10;17.45;;;8.00;97.10;;;;;;5055855;28;20225;-58
2022/03/17 01:16:56;;;;;;;20.55;15.90;;;8.00;97.10;;;;;;5056015;28;20237;-57
2022/03/17 01:19:23;;;;;;;22.80;18.35;;;7.90;97.10;;;;;;5055878;28;20205;-58
2022/03/17 01:21:52;;;;;;;24.45;17.95;;;7.90;97.20;;;;;;5055775;28;20201;-58
2022/03/17 01:24:20;;;;;;;21.58;17.58;;;7.90;97.20;;;;;;5055647;28;20233;-57
2022/03/17 01:26:47;;;;;;;24.98;17.63;;;7.90;97.20;;;;;;5056146;28;20201;-56
2022/03/17 01:29:14;;;;;;;22.85;18.13;;;7.80;97.30;;;;;;5055999;28;20216;-58
2022/03/17 01:31:41;;;;;;;23.55;18.20;;;7.80;97.40;;;;;;5055627;28;20209;-58
2022/03/17 01:34:08;;;;;;;28.67;18.05;;;7.80;97.50;;;;;;5055764;28;20225;-58
2022/03/17 01:36:36;;;;;;;24.35;18.70;;;7.80;97.60;;;;;;5055186;28;20208;-56
2022/03/17 01:39:04;;;;;;;26.83;19.85;;;7.80;97.60;;;;;;5055909;28;20694;-57
2022/03/17 01:41:32;;;;;;;22.20;18.25;;;7.80;97.60;;;;;;5055741;28;20708;-58
2022/03/17 01:43:59;;;;;;;23.65;19.75;;;7.80;97.70;;;;;;5055803;28;20221;-57
2022/03/17 01:46:26;;;;;;;25.50;18.52;;;7.80;97.70;;;;;;5055840;28;20209;-57
2022/03/17 01:48:53;;;;;;;24.13;19.30;;;7.80;97.70;;;;;;5055737;28;20212;-57
2022/03/17 01:51:20;;;;;;;24.90;20.08;;;7.80;97.70;;;;;;5055393;28;20692;-57
2022/03/17 01:53:47;;;;;;;27.48;20.02;;;7.80;97.80;;;;;;5055560;28;20206;-57
2022/03/17 01:56:17;;;;;;;25.60;19.70;;;7.80;97.80;;;;;;5055465;28;20205;-57
2022/03/17 01:58:45;;;;;;;25.45;20.27;;;7.80;97.80;;;;;;5055496;28;20194;-57
2022/03/17 02:01:12;;;;;;;27.65;20.48;;;7.80;97.80;;;;;;5055287;28;20237;-56
2022/03/17 02:03:43;;;;;;;22.80;19.73;;;7.80;97.90;;;;;;5055579;28;20205;-57
2022/03/17 02:06:10;;;;;;;24.75;19.38;;;7.70;97.90;;;;;;5055351;28;20186;-57
2022/03/17 02:08:38;;;;;;;22.65;19.75;;;7.80;98.00;;;;;;5055246;28;20197;-56
2022/03/17 02:13:50;;;;;;;24.88;19.17;;;7.80;98.00;;;;;;5055170;28;20267;-57
2022/03/17 02:16:17;;;;;;;26.17;20.80;;;7.70;98.00;;;;;;5055031;28;20202;-56
2022/03/17 02:18:46;;;;;;;22.35;19.92;;;7.70;98.00;;;;;;5054736;28;20673;-57
2022/03/17 02:21:13;;;;;;;29.13;21.38;;;7.70;98.10;;;;;;5054754;28;20670;-56
2022/03/17 02:26:28;;;;;;;26.77;19.80;;;7.70;98.20;;;;;;5054915;28;20185;-56
2022/03/17 02:28:55;;;;;;;24.52;19.95;;;7.70;98.30;;;;;;5054919;28;20201;-57
2022/03/17 02:31:23;;;;;;;29.00;21.42;;;7.70;98.30;;;;;;5054763;28;20237;-58
2022/03/17 02:33:51;;;;;;;25.73;19.58;;;7.70;98.40;;;;;;5054800;28;20221;-57
2022/03/17 02:36:19;;;;;;;32.03;21.40;;;7.60;98.40;;;;;;5054760;28;20230;-57
2022/03/17 02:38:47;;;;;;;29.38;20.90;;;7.60;98.80;;;;;;5054306;28;20244;-56
2022/03/17 02:41:21;;;;;;;27.77;20.63;;;7.60;98.50;;;;;;5054727;28;20201;-56
2022/03/17 02:43:50;;;;;;;27.55;20.50;;;7.60;98.60;;;;;;5054990;28;20696;-57
2022/03/17 02:46:17;;;;;;;26.60;19.98;;;7.60;98.60;;;;;;5054497;28;20673;-57
2022/03/17 02:48:44;;;;;;;27.45;21.23;;;7.60;98.60;;;;;;5053081;28;20209;-57
2022/03/17 02:51:12;;;;;;;25.27;20.63;;;7.60;98.80;;;;;;5054082;28;20201;-57
2022/03/17 02:53:39;;;;;;;30.10;21.02;;;7.60;98.90;;;;;;5054209;28;20229;-58
2022/03/17 02:56:07;;;;;;;26.35;20.70;;;7.60;98.80;;;;;;5053871;28;20230;-58
2022/03/17 02:58:35;;;;;;;28.10;21.40;;;7.50;98.80;;;;;;5053903;28;20201;-58
2022/03/17 03:01:03;;;;;;;25.58;20.23;;;7.50;98.90;;;;;;5054205;28;20201;-58
2022/03/17 03:03:30;;;;;;;25.30;19.85;;;7.50;99.00;;;;;;5054062;28;20271;-58
2022/03/17 03:05:57;;;;;;;26.38;19.75;;;7.50;99.30;;;;;;5054131;28;20255;-58
2022/03/17 03:08:25;;;;;;;28.77;21.05;;;7.50;99.10;;;;;;5053735;28;20204;-58
2022/03/17 03:10:52;;;;;;;28.10;22.60;;;7.50;99.20;;;;;;5053802;28;20237;-58
2022/03/17 03:13:20;;;;;;;28.30;21.77;;;7.50;99.20;;;;;;5053660;28;20202;-58
2022/03/17 03:15:50;;;;;;;27.70;21.27;;;7.50;99.30;;;;;;5053483;28;20217;-57
2022/03/17 03:18:17;;;;;;;27.15;20.58;;;7.50;99.30;;;;;;5053731;28;20670;-57
2022/03/17 03:20:44;;;;;;;35.65;23.33;;;7.40;99.40;;;;;;5053642;28;20575;-57
2022/03/17 03:23:11;;;;;;;27.15;22.05;;;7.40;99.40;;;;;;5053874;28;20206;-58
2022/03/17 03:25:39;;;;;;;25.23;20.35;;;7.40;99.50;;;;;;5053296;28;20225;-58
2022/03/17 03:28:07;;;;;;;28.67;21.88;;;7.40;99.60;;;;;;5053400;28;20204;-58
2022/03/17 03:30:36;;;;;;;28.08;21.73;;;7.40;99.80;;;;;;5053665;28;20201;-58
2022/03/17 03:33:03;;;;;;;29.25;21.98;;;7.40;99.90;;;;;;5053292;28;20213;-58
2022/03/17 03:38:15;;;;;;;27.95;22.00;;;7.40;99.90;;;;;;5053464;28;20215;-57
2022/03/17 03:40:42;;;;;;;28.92;22.67;;;7.40;99.90;;;;;;5053571;28;20201;-57
2022/03/17 03:43:09;;;;;;;33.50;23.48;;;7.40;99.90;;;;;;5053447;28;20216;-58
2022/03/17 03:45:38;;;;;;;26.55;20.17;;;7.40;99.90;;;;;;5053185;28;20704;-58
2022/03/17 03:48:05;;;;;;;27.25;21.08;;;7.40;99.90;;;;;;5053847;28;20198;-58
2022/03/17 03:50:32;;;;;;;25.48;19.05;;;7.40;99.90;;;;;;5053326;28;20213;-57
2022/03/17 03:52:59;;;;;;;28.45;21.60;;;7.40;99.90;;;;;;5053588;28;20276;-58
2022/03/17 03:55:26;;;;;;;27.05;22.02;;;7.40;99.90;;;;;;5053138;28;20236;-58
2022/03/17 03:57:54;;;;;;;29.33;20.75;;;7.50;99.90;;;;;;5053298;28;20206;-57
2022/03/17 04:00:26;;;;;;;25.35;20.80;;;7.50;99.90;;;;;;5052554;28;20205;-57
2022/03/17 04:02:55;;;;;;;30.58;22.50;;;7.50;99.90;;;;;;5053725;28;20515;-57
2022/03/17 04:05:24;;;;;;;27.75;22.00;;;7.50;99.90;;;;;;5053113;28;20253;-58
2022/03/17 04:09:33;;;;;;;28.30;21.90;;;7.50;99.70;;;;;;5111502;27;20555;-57
2022/03/17 04:12:01;;;;;;;28.95;22.77;;;7.50;99.70;;;;;;5110687;28;20667;-57
2022/03/17 04:14:29;;;;;;;27.30;22.45;;;7.50;99.70;;;;;;5110968;28;20224;-57
2022/03/17 04:16:57;;;;;;;29.60;22.73;;;7.50;99.70;;;;;;5110961;28;20210;-58
2022/03/17 04:19:24;;;;;;;26.77;21.20;;;7.50;99.80;;;;;;5110947;28;20206;-58
2022/03/17 04:21:51;;;;;;;26.67;22.00;;;7.60;99.80;;;;;;5119552;22;20229;-59
2022/03/17 04:24:19;;;;;;;27.50;22.10;;;7.60;99.80;;;;;;5091194;28;20239;-57
2022/03/17 04:26:48;;;;;;;29.23;21.33;;;7.50;99.70;;;;;;5092211;28;20196;-58
2022/03/17 04:29:16;;;;;;;28.63;22.73;;;7.60;99.80;;;;;;5092628;28;20220;-59
2022/03/17 04:31:45;;;;;;;34.65;23.10;;;7.50;99.90;;;;;;5094587;28;20223;-57
2022/03/17 04:34:12;;;;;;;29.65;22.17;;;7.50;99.80;;;;;;5099544;28;20200;-58
2022/03/17 04:36:40;;;;;;;27.70;21.13;;;7.50;99.90;;;;;;5094920;28;20688;-58
2022/03/17 04:39:10;;;;;;;29.33;22.73;;;7.50;99.90;;;;;;5090852;28;20196;-59
2022/03/17 04:41:37;;;;;;;29.45;23.00;;;7.50;99.90;;;;;;5094742;28;20248;-58
2022/03/17 04:44:06;;;;;;;35.03;24.02;;;7.50;99.90;;;;;;5091096;28;20333;-58
2022/03/17 04:46:34;;;;;;;28.17;23.30;;;7.50;99.90;;;;;;5091197;28;20205;-58
2022/03/17 04:49:01;;;;;;;29.85;23.15;;;7.50;99.90;;;;;;5090283;28;20224;-59
2022/03/17 04:51:28;;;;;;;31.17;23.10;;;7.50;99.90;;;;;;5090007;28;20325;-59
2022/03/17 04:53:55;;;;;;;30.98;23.55;;;7.50;99.90;;;;;;5090176;28;20595;-59
2022/03/17 04:56:22;;;;;;;29.08;23.13;;;7.50;99.90;;;;;;5089719;28;20196;-59
2022/03/17 04:58:49;;;;;;;33.00;24.55;;;7.50;99.90;;;;;;5089662;28;20203;-59
2022/03/17 05:01:18;;;;;;;31.30;23.20;;;7.50;99.90;;;;;;5089708;28;20224;-59
2022/03/17 05:03:45;;;;;;;32.70;23.33;;;7.50;99.90;;;;;;5091706;28;20204;-58
2022/03/17 05:06:14;;;;;;;32.65;25.00;;;7.50;99.90;;;;;;5093488;28;20200;-58
2022/03/17 05:08:41;;;;;;;30.30;23.65;;;7.50;99.90;;;;;;5092919;28;20588;-58
2022/03/17 05:11:09;;;;;;;30.50;23.95;;;7.50;99.90;;;;;;5096416;28;20251;-58
2022/03/17 05:13:37;;;;;;;28.45;23.40;;;7.40;99.90;;;;;;5097136;28;20200;-58
2022/03/17 05:16:05;;;;;;;34.17;25.08;;;7.50;99.90;;;;;;5098530;28;20673;-58
2022/03/17 05:18:34;;;;;;;32.97;23.02;;;7.50;99.90;;;;;;5097063;28;20200;-57
2022/03/17 05:21:01;;;;;;;32.95;23.83;;;7.50;99.90;;;;;;5076861;28;20237;-58
2022/03/17 05:23:30;;;;;;;33.28;23.73;;;7.50;99.90;;;;;;5076042;28;20204;-58
2022/03/17 05:25:58;;;;;;;30.27;23.13;;;7.50;99.90;;;;;;5075742;28;20201;-59
2022/03/17 05:28:25;;;;;;;33.20;23.05;;;7.50;99.90;;;;;;5075873;28;20355;-59
2022/03/17 05:30:52;;;;;;;30.00;23.98;;;7.60;99.90;;;;;;5075352;28;20228;-58
2022/03/17 05:33:21;;;;;;;28.45;23.30;;;7.60;99.90;;;;;;5075953;28;20201;-59
2022/03/17 05:35:49;;;;;;;32.25;24.15;;;7.60;99.90;;;;;;5075913;28;20208;-58
2022/03/17 05:38:16;;;;;;;31.13;23.45;;;7.60;99.90;;;;;;5075545;28;20197;-58
2022/03/17 05:40:44;;;;;;;32.30;23.75;;;7.60;99.90;;;;;;5075626;28;20248;-59
2022/03/17 05:43:11;;;;;;;32.83;23.92;;;7.70;99.90;;;;;;5075447;28;20762;-58
2022/03/17 05:45:40;;;;;;;32.83;23.95;;;7.70;99.90;;;;;;5075455;28;20223;-58
2022/03/17 05:48:08;;;;;;;30.00;23.63;;;7.70;99.90;;;;;;5075349;28;20221;-59
2022/03/17 05:50:37;;;;;;;28.67;22.67;;;7.70;99.90;;;;;;5075053;28;20228;-58
2022/03/17 05:53:06;;;;;;;33.05;24.83;;;7.80;99.90;;;;;;5075141;28;20266;-59
2022/03/17 05:55:33;;;;;;;30.15;23.85;;;7.80;99.90;;;;;;5075136;28;20205;-59
2022/03/17 05:58:01;;;;;;;30.40;24.00;;;7.80;99.90;;;;;;5075953;28;20197;-58
2022/03/17 06:00:29;;;;;;;32.17;24.67;;;7.90;99.90;;;;;;5076700;28;20224;-58
2022/03/17 06:02:58;;;;;;;30.75;23.83;;;7.90;99.90;;;;;;5075407;28;20209;-58
2022/03/17 06:05:26;;;;;;;28.05;22.52;;;8.00;99.90;;;;;;5075091;28;20622;-59
2022/03/17 06:07:57;;;;;;;33.80;24.63;;;8.10;99.90;;;;;;5075076;28;20346;-59
2022/03/17 06:10:27;;;;;;;31.65;24.98;;;8.10;99.80;;;;;;5074539;28;20221;-58
2022/03/17 06:12:56;;;;;;;27.85;23.52;;;8.10;99.60;;;;;;5074645;28;20181;-59
2022/03/17 06:15:24;;;;;;;28.92;23.42;;;8.20;99.50;;;;;;5074528;28;20201;-58
2022/03/17 06:17:56;;;;;;;29.35;23.10;;;8.30;99.30;;;;;;5074697;28;20236;-57
2022/03/17 06:20:26;;;;;;;28.73;23.60;;;8.40;99.00;;;;;;5074375;28;20716;-58
2022/03/17 06:22:54;;;;;;;28.48;23.13;;;8.40;98.70;;;;;;5075526;28;20274;-59
2022/03/17 06:25:23;;;;;;;30.13;23.48;;;8.50;98.50;;;;;;5074742;28;20209;-58
2022/03/17 06:27:51;;;;;;;25.75;22.58;;;8.60;98.30;;;;;;5074337;28;20197;-58
2022/03/17 06:30:20;;;;;;;29.00;23.45;;;8.60;98.10;;;;;;5074352;28;20603;-59
2022/03/17 06:32:48;;;;;;;29.25;23.08;;;8.70;98.00;;;;;;5073956;28;20200;-59
2022/03/17 06:35:17;;;;;;;28.35;22.98;;;8.70;97.90;;;;;;5074014;28;20208;-58
2022/03/17 06:37:45;;;;;;;29.02;21.27;;;8.80;97.80;;;;;;5074794;28;20204;-59
2022/03/17 06:40:13;;;;;;;30.05;22.35;;;8.80;97.70;;;;;;5074409;28;20795;-59
2022/03/17 06:42:41;;;;;;;27.30;23.02;;;8.80;97.60;;;;;;5074499;28;20212;-58
2022/03/17 06:45:10;;;;;;;29.27;23.65;;;8.90;97.50;;;;;;5074328;28;20205;-58
2022/03/17 06:47:37;;;;;;;31.48;23.33;;;8.90;97.40;;;;;;5074429;28;20236;-59
2022/03/17 06:50:05;;;;;;;30.48;23.52;;;9.00;97.30;;;;;;5074251;28;20228;-58
2022/03/17 06:52:33;;;;;;;33.88;23.92;;;9.00;97.10;;;;;;5074155;28;20201;-59
2022/03/17 06:55:00;;;;;;;29.77;23.95;;;9.10;97.00;;;;;;5073790;28;20208;-58
2022/03/17 06:57:27;;;;;;;28.35;23.55;;;9.20;96.80;;;;;;5073648;28;20208;-58
2022/03/17 06:59:54;;;;;;;31.52;24.30;;;9.20;96.50;;;;;;5073887;28;20216;-59
2022/03/17 07:02:22;;;;;;;29.20;24.07;;;9.30;96.20;;;;;;5073965;28;20226;-59
2022/03/17 07:04:49;;;;;;;31.00;24.40;;;9.40;95.80;;;;;;5073821;28;20935;-58
2022/03/17 07:07:17;;;;;;;29.83;23.17;;;9.60;95.30;;;;;;5074910;28;20204;-58
2022/03/17 07:09:44;;;;;;;28.70;23.73;;;9.60;94.70;;;;;;5075470;28;20221;-59
2022/03/17 07:12:11;;;;;;;29.17;24.13;;;9.80;94.10;;;;;;5080933;28;20221;-60
2022/03/17 07:14:39;;;;;;;26.67;22.88;;;9.90;93.50;;;;;;5081670;28;20451;-57
2022/03/17 07:17:06;;;;;;;29.87;23.33;;;10.00;92.30;;;;;;5082288;28;20260;-58
2022/03/17 07:19:35;;;;;;;29.88;23.08;;;10.10;91.80;;;;;;5083375;28;20818;-59
2022/03/17 07:22:02;;;;;;;30.90;24.73;;;10.20;91.30;;;;;;5080348;28;20374;-58
2022/03/17 07:24:30;;;;;;;27.80;23.50;;;10.20;90.80;;;;;;5079540;28;20443;-58
2022/03/17 07:26:58;;;;;;;26.60;22.83;;;10.30;90.40;;;;;;5079594;28;20816;-58
2022/03/17 07:29:25;;;;;;;30.57;23.77;;;10.30;90.00;;;;;;5078865;28;20485;-58
2022/03/17 07:31:54;;;;;;;27.97;23.23;;;10.40;89.60;;;;;;5080263;28;21030;-57
2022/03/17 07:34:21;;;;;;;26.77;22.60;;;10.40;89.00;;;;;;5076881;28;20443;-56
2022/03/17 07:36:51;;;;;;;27.57;23.47;;;10.40;88.20;;;;;;5074914;28;20938;-59
2022/03/17 07:39:18;;;;;;;27.73;23.30;;;10.50;87.80;;;;;;5074603;28;20443;-59
2022/03/17 07:41:45;;;;;;;26.83;23.40;;;10.50;87.30;;;;;;5073279;28;20466;-58
2022/03/17 07:44:13;;;;;;;28.00;23.93;;;10.50;86.80;;;;;;5073316;28;20448;-58
2022/03/17 07:46:40;;;;;;;27.00;23.67;;;10.50;86.20;;;;;;5074011;28;20458;-58
2022/03/17 07:49:08;;;;;;;28.37;24.37;;;10.50;85.60;;;;;;5073419;28;20479;-59
2022/03/17 07:51:36;;;;;;;28.57;22.50;;;10.50;85.40;;;;;;5072848;28;20497;-59
2022/03/17 07:54:04;;;;;;;28.97;22.87;;;10.50;85.10;;;;;;5073257;28;20446;-59
2022/03/17 07:56:32;;;;;;;26.57;22.20;;;10.60;84.70;;;;;;5073369;28;20450;-58
2022/03/17 07:58:59;;;;;;;29.67;23.27;;;10.60;84.50;;;;;;5073060;28;20501;-58
2022/03/17 08:01:26;;;;;;;31.73;23.53;;;10.70;84.20;;;;;;5073366;28;20459;-59
2022/03/17 08:03:54;;;;;;;26.70;22.30;;;10.70;83.80;;;;;;5073145;28;20443;-59
2022/03/17 08:06:22;;;;;;;28.20;23.30;;;10.70;83.50;;;;;;5072959;28;20475;-58
2022/03/17 08:08:49;;;;;;;33.30;23.30;;;10.70;83.40;;;;;;5072786;28;20482;-59
2022/03/17 08:11:18;;;;;;;30.70;24.43;;;10.80;83.40;;;;;;5072773;28;20467;-59
2022/03/17 08:13:45;;;;;;;29.10;24.17;;;10.70;83.70;;;;;;5073198;28;20443;-57
2022/03/17 08:16:12;;;;;;;28.40;24.73;;;10.70;84.20;;;;;;5073117;28;20540;-58
2022/03/17 08:18:40;;;;;;;29.57;24.20;;;10.70;84.60;;;;;;5073185;28;20439;-59
2022/03/17 08:21:07;;;;;;;26.60;23.70;;;10.70;84.50;;;;;;5072751;28;20474;-58
2022/03/17 08:23:34;;;;;;;29.27;22.80;;;10.70;84.60;;;;;;5072983;28;20546;-58
2022/03/17 08:26:01;;;;;;;27.40;23.00;;;10.60;84.50;;;;;;5072922;28;20446;-59
2022/03/17 08:28:30;;;;;;;29.00;22.90;;;10.60;84.60;;;;;;5072407;28;20458;-59
2022/03/17 08:30:57;;;;;;;29.27;23.33;;;10.60;84.50;;;;;;5072868;28;20470;-58
2022/03/17 08:33:24;;;;;;;27.60;23.63;;;10.60;84.60;;;;;;5072723;28;20940;-58
2022/03/17 08:35:52;;;;;;;33.43;23.53;;;10.60;84.60;;;;;;5072558;28;20446;-58
2022/03/17 08:51:50;;;;;;;33.83;25.23;;;10.30;89.30;;;;;;5072641;28;20461;-59
2022/03/17 08:54:18;;;;;;;29.83;25.00;;;10.20;90.80;;;;;;5073164;28;20431;-58
2022/03/17 08:56:45;;;;;;;29.77;24.90;;;10.10;91.40;;;;;;5076608;28;20449;-59
2022/03/17 08:59:12;;;;;;;29.00;24.67;;;10.00;92.30;;;;;;5076369;28;20440;-58
2022/03/17 09:01:39;;;;;;;29.40;24.40;;;9.90;93.50;;;;;;5075830;28;20803;-58
2022/03/17 09:04:07;;;;;;;34.20;27.17;;;9.80;94.10;;;;;;5076530;28;20447;-59
2022/03/17 09:06:36;;;;;;;30.77;26.47;;;9.80;94.50;;;;;;5076532;28;20447;-59
2022/03/17 09:09:05;;;;;;;31.40;25.70;;;9.80;95.10;;;;;;5075980;28;20574;-58
2022/03/17 09:11:34;;;;;;;27.30;23.33;;;9.80;94.90;;;;;;5075931;28;20463;-58
2022/03/17 09:14:01;;;;;;;28.63;24.17;;;9.80;95.00;;;;;;5076061;28;20831;-59
2022/03/17 09:16:28;;;;;;;32.30;24.37;;;9.80;95.00;;;;;;5076164;28;20810;-58
2022/03/17 09:18:56;;;;;;;29.80;23.15;;;9.80;95.00;;;;;;5075835;28;20957;-59
2022/03/17 09:21:25;;;;;;;25.43;22.40;;;9.80;95.00;;;;;;5076020;28;20228;-59
2022/03/17 09:23:52;;;;;;;28.53;25.17;;;9.80;94.90;;;;;;5077020;28;20505;-60
2022/03/17 09:26:21;;;;;;;32.97;24.08;;;9.80;94.90;;;;;;5076051;28;20447;-59
2022/03/17 09:28:50;;;;;;;29.50;24.17;;;9.90;94.80;;;;;;5075818;28;20201;-59
2022/03/17 09:31:17;;;;;;;28.63;24.67;;;9.80;94.90;;;;;;5075506;28;20463;-59
2022/03/17 09:33:45;;;;;;;36.13;26.53;;;9.70;95.50;;;;;;5075468;28;20454;-59
2022/03/17 09:36:12;;;;;;;32.22;25.98;;;9.60;96.50;;;;;;5075581;28;20442;-60
2022/03/17 09:38:39;;;;;;;34.67;26.93;;;9.40;97.50;;;;;;5075530;28;20205;-59
2022/03/17 09:41:24;;;;;;;38.00;28.20;;;9.30;98.40;;;;;;5075094;28;20558;-58
2022/03/17 09:43:53;;;;;;;34.60;26.75;;;9.20;99.40;;;;;;5075623;28;20456;-60
2022/03/17 09:46:22;;;;;;;33.92;27.83;;;9.10;99.90;;;;;;5075172;28;20205;-59
2022/03/17 09:48:52;;;;;;;36.97;28.27;;;9.00;99.90;;;;;;5075481;28;20207;-58
2022/03/17 09:51:21;;;;;;;36.72;29.42;;;9.00;99.90;;;;;;5075343;28;20217;-58
2022/03/17 09:53:50;;;;;;;38.42;30.65;;;9.00;99.90;;;;;;5075225;28;20201;-59
2022/03/17 09:56:17;;;;;;;36.13;29.75;;;8.90;99.90;;;;;;5075816;28;20296;-60
2022/03/17 09:58:47;;;;;;;37.85;31.92;;;8.90;99.90;;;;;;5075209;28;20197;-59
2022/03/17 10:01:16;;;;;;;35.08;29.05;;;8.90;99.90;;;;;;5075128;28;20307;-60
2022/03/17 10:03:45;;;;;;;38.15;30.65;;;8.90;99.90;;;;;;5078859;28;20201;-57
2022/03/17 10:06:14;;;;;;;39.08;31.08;;;8.90;99.90;;;;;;5086389;28;20239;-59
2022/03/17 10:08:42;;;;;;;37.53;29.60;;;8.90;99.90;;;;;;5076454;28;20204;-59
2022/03/17 10:11:15;;;;;;;38.88;30.75;;;8.90;99.90;;;;;;5074939;28;20221;-59
2022/03/17 10:13:46;;;;;;;48.15;33.47;;;8.90;99.90;;;;;;5075301;28;20213;-59
2022/03/17 10:16:18;;;;;;;43.42;31.92;;;8.90;99.90;;;;;;5074973;28;20239;-57
2022/03/17 10:18:46;;;;;;;44.85;32.15;;;8.90;99.90;;;;;;5074770;28;20221;-59
2022/03/17 10:21:16;;;;;;;40.97;30.13;;;8.90;99.90;;;;;;5089713;22;20279;-56
2022/03/17 10:23:48;;;;;;;41.03;31.70;;;8.90;99.90;;;;;;5074540;28;20201;-56
2022/03/17 10:26:31;;;;;;;44.65;33.00;;;8.90;99.90;;;;;;5075112;28;20205;-57
2022/03/17 10:29:05;;;;;;;43.30;33.05;;;8.90;99.90;;;;;;5073103;28;20248;-57
2022/03/17 10:31:49;;;;;;;41.72;31.70;;;8.90;99.90;;;;;;5074787;28;20650;-57
2022/03/17 10:34:16;;;;;;;42.65;32.63;;;9.00;99.90;;;;;;5075323;28;20193;-58
2022/03/17 10:36:45;;;;;;;40.50;31.90;;;8.90;99.90;;;;;;5075384;28;20200;-56
2022/03/17 10:39:13;;;;;;;43.22;32.58;;;8.80;99.90;;;;;;5074854;28;20296;-57
2022/03/17 10:41:42;;;;;;;43.25;33.90;;;8.80;99.90;;;;;;5074920;28;20221;-58
2022/03/17 10:44:12;;;;;;;44.70;33.03;;;8.80;99.90;;;;;;5074199;28;20552;-59
2022/03/17 10:46:55;;;;;;;41.92;30.58;;;8.80;99.90;;;;;;5074406;28;20209;-57
2022/03/17 10:49:22;;;;;;;39.85;27.30;;;8.80;99.90;;;;;;5074280;28;20574;-56
2022/03/17 10:51:54;;;;;;;31.23;24.42;;;8.70;99.90;;;;;;5074285;28;20221;-57
2022/03/17 10:54:21;;;;;;;31.58;22.90;;;8.70;99.90;;;;;;5074689;28;20189;-58
2022/03/17 10:57:00;;;;;;;33.55;24.77;;;8.60;99.90;;;;;;5074214;28;20201;-58
2022/03/17 10:59:38;;;;;;;26.88;19.48;;;8.50;99.90;;;;;;5074457;28;20238;-59
2022/03/17 11:02:09;;;;;;;26.98;18.58;;;8.50;99.90;;;;;;5074204;28;20250;-56
2022/03/17 11:04:38;;;;;;;19.02;14.32;;;8.40;99.90;;;;;;5073718;28;20668;-58
2022/03/17 11:07:07;;;;;;;19.20;13.43;;;8.30;99.90;;;;;;5073797;28;20681;-55
2022/03/17 11:09:36;;;;;;;16.25;12.45;;;8.20;99.90;;;;;;5073829;28;20221;-57
2022/03/17 11:12:05;;;;;;;20.60;14.20;;;8.10;99.90;;;;;;5073696;28;20216;-58
2022/03/17 11:14:33;;;;;;;15.82;13.32;;;8.00;99.90;;;;;;5073748;28;20201;-57
2022/03/17 11:17:03;;;;;;;15.02;12.23;;;8.00;99.90;;;;;;5073358;28;20212;-59
2022/03/17 11:19:33;;;;;;;15.65;12.20;;;8.00;99.90;;;;;;5073996;28;20193;-59
2022/03/17 11:22:08;;;;;;;14.82;11.90;;;8.00;99.90;;;;;;5073304;28;20232;-58
2022/03/17 11:24:39;;;;;;;18.40;12.32;;;8.00;99.90;;;;;;5073781;28;20536;-61
2022/03/17 11:27:11;;;;;;;13.93;11.18;;;8.00;99.90;;;;;;5073397;28;20181;-58
2022/03/17 11:29:40;;;;;;;20.77;12.30;;;7.90;99.90;;;;;;5073485;28;20307;-60
2022/03/17 11:32:10;;;;;;;14.60;11.63;;;7.90;99.90;;;;;;5073309;28;20256;-57
2022/03/17 11:34:49;;;;;;;14.68;10.75;;;7.90;99.90;;;;;;5074049;28;20201;-58
2022/03/17 11:37:27;;;;;;;16.95;11.98;;;7.90;99.90;;;;;;5074295;28;20189;-62
2022/03/17 11:39:56;;;;;;;12.95;10.48;;;7.90;99.90;;;;;;5074005;28;20548;-59
2022/03/17 11:42:35;;;;;;;16.85;11.82;;;7.90;99.90;;;;;;5074061;28;20301;-60
2022/03/17 11:45:08;;;;;;;14.45;11.48;;;7.90;99.90;;;;;;5073770;28;20250;-60
2022/03/17 11:47:37;;;;;;;13.55;10.93;;;7.90;99.90;;;;;;5073999;28;20185;-59
2022/03/17 11:50:26;;;;;;;13.73;11.90;;;8.00;99.90;;;;;;5073486;28;20217;-59
2022/03/17 11:52:57;;;;;;;17.60;11.30;;;8.00;99.90;;;;;;5073363;28;20256;-59
2022/03/17 11:55:35;;;;;;;13.95;9.60;;;8.10;99.90;;;;;;5073034;28;20185;-60
2022/03/17 11:58:25;;;;;;;14.52;10.43;;;8.10;99.90;;;;;;5073186;28;20668;-60
2022/03/17 12:00:53;;;;;;;13.60;10.32;;;8.20;99.90;;;;;;5073079;28;20181;-59
2022/03/17 12:03:31;;;;;;;10.00;8.38;;;8.20;99.90;;;;;;5073256;28;20207;-59
2022/03/17 12:06:16;;;;;;;11.38;8.90;;;8.20;99.90;;;;;;5073249;28;20205;-59
2022/03/17 12:08:51;;;;;;;9.85;8.85;;;8.20;99.90;;;;;;5073139;28;20193;-58
2022/03/17 12:11:22;;;;;;;12.13;8.95;;;8.20;99.90;;;;;;5072784;28;20224;-60
2022/03/17 12:14:17;;;;;;;11.05;8.60;;;8.20;99.90;;;;;;5073360;28;20299;-61
2022/03/17 12:16:47;;;;;;;11.02;7.57;;;8.20;99.90;;;;;;5072973;28;20272;-60
2022/03/17 12:19:48;;;;;;;9.60;7.82;;;8.20;99.90;;;;;;5073176;28;20259;-58
2022/03/17 12:22:19;;;;;;;9.98;8.07;;;8.30;99.90;;;;;;5072913;28;20316;-57
2022/03/17 12:24:52;;;;;;;13.35;7.18;;;8.30;99.90;;;;;;5073291;28;20279;-57
2022/03/17 12:27:26;;;;;;;12.20;7.00;;;8.40;99.90;;;;;;5073301;28;20200;-60
2022/03/17 12:29:58;;;;;;;10.73;7.55;;;8.50;99.90;;;;;;5074773;28;20208;-61
2022/03/17 12:32:26;;;;;;;10.55;7.75;;;8.60;99.90;;;;;;5076894;28;20225;-59
2022/03/17 12:34:54;;;;;;;7.45;6.65;;;8.70;99.90;;;;;;5077048;28;20665;-60
2022/03/17 12:37:26;;;;;;;9.50;6.75;;;8.80;99.90;;;;;;5076589;28;20772;-58
2022/03/17 12:39:54;;;;;;;10.30;6.70;;;8.80;99.90;;;;;;5076786;28;20193;-60
2022/03/17 12:42:23;;;;;;;6.03;5.43;;;8.80;99.90;;;;;;5076398;28;20728;-59
2022/03/17 12:44:56;;;;;;;9.98;6.05;;;8.80;99.90;;;;;;5076514;28;20449;-61
2022/03/17 12:47:25;;;;;;;7.53;5.20;;;8.70;99.90;;;;;;5075371;28;20438;-57
2022/03/17 12:49:55;;;;;;;5.63;5.03;;;8.70;99.90;;;;;;5076213;28;20205;-57
2022/03/17 12:52:26;;;;;;;13.38;4.88;;;8.70;99.90;;;;;;5076365;28;20571;-57
2022/03/17 12:54:55;;;;;;;6.80;4.15;;;8.70;99.90;;;;;;5076258;28;20193;-57
2022/03/17 12:57:22;;;;;;;7.60;4.57;;;8.70;99.90;;;;;;5076568;28;20204;-55
2022/03/17 12:59:50;;;;;;;8.85;5.28;;;8.70;99.90;;;;;;5075952;28;20212;-58
2022/03/17 13:02:18;;;;;;;6.28;4.25;;;8.60;99.90;;;;;;5076006;28;20220;-57
2022/03/17 13:04:46;;;;;;;5.47;3.85;;;8.60;99.90;;;;;;5076527;28;20209;-56
2022/03/17 13:07:14;;;;;;;6.65;4.50;;;8.60;99.90;;;;;;5076831;28;20197;-55
2022/03/17 13:09:44;;;;;;;9.13;4.40;;;8.50;99.90;;;;;;5076817;28;20212;-57
2022/03/17 13:14:59;;;;;;;5.35;4.50;;;8.40;99.90;;;;;;5076275;28;20226;-58